Colton, Texas
Current Conditions -  °F | °C
As of 7:53 AM on Monday 24 Nov 2014 (Local Time) from KAUS Reporting Station
Few Clouds Few Clouds  
Wind Chill: 50°   Ceiling: Unl
Heat Index: 50°   Visibility: 10mi
Dew Point: 37°   Wind: 10mph
Humidity: 61%   Direction: 320°NW
Pressure: 30.03"   Gusts: NA
Location:  30.1791°N, 97.7294°W
Report Text: KAUS 241353Z 32009KT 10SM FEW150 10/03 A3003 RMK AO2 SLP169 T01000028
Loading
Personal Weather Stations






























Interactive Weather Map New forecast layout! Learn more

10-Day Weather Forecast

Advertisements
Track Severe Weather on mobile